Time;durP1;ratioP1;P1;durP2;ratioP2;P2;SDS_P1;SDS_P2;PMS_P1;PMS_P2;Temp;Humidity;BMP_temperature;BMP_pressure;BME280_temperature;BME280_humidity;BME280_pressure;Samples;Min_cycle;Max_cycle;Signal;HPM_P1;HPM_P2
2023/04/13 00:00:09;;;;;;;2.53;2.25;;;;;;;4.54;100.00;99278.31;6251231;23;20004;-88
2023/04/13 00:02:38;;;;;;;3.97;2.10;;;;;;;4.52;100.00;99281.06;6251635;23;20010;-87
2023/04/13 00:05:09;;;;;;;3.10;2.00;;;;;;;4.57;100.00;99272.91;6251168;23;20137;-88
2023/04/13 00:07:37;;;;;;;3.97;2.00;;;;;;;4.56;100.00;99276.47;6252160;23;20004;-87
2023/04/13 00:10:05;;;;;;;5.95;2.22;;;;;;;4.51;100.00;99263.50;6255959;23;20015;-90
2023/04/13 00:12:32;;;;;;;3.20;2.05;;;;;;;4.63;100.00;99270.78;6251577;23;19996;-87
2023/04/13 00:14:57;;;;;;;3.50;2.15;;;;;;;4.58;100.00;99256.16;6259825;23;20019;-90
2023/04/13 00:17:25;;;;;;;3.20;1.80;;;;;;;4.61;100.00;99261.28;6258605;23;20000;-90
2023/04/13 00:19:52;;;;;;;3.30;2.08;;;;;;;4.70;100.00;99269.56;6257909;23;20031;-87
2023/04/13 00:22:18;;;;;;;4.40;2.42;;;;;;;4.72;100.00;99258.91;6252006;23;20004;-89
2023/04/13 00:24:43;;;;;;;4.68;2.15;;;;;;;4.74;100.00;99268.47;6244844;23;20004;-90
2023/04/13 00:27:09;;;;;;;2.83;1.80;;;;;;;4.81;100.00;99257.59;6245326;23;20012;-88
2023/04/13 00:29:35;;;;;;;4.68;2.10;;;;;;;4.92;100.00;99269.28;6247919;23;20085;-91
2023/04/13 00:32:01;;;;;;;3.08;2.05;;;;;;;4.95;100.00;99276.19;6247987;23;20026;-89
2023/04/13 00:34:27;;;;;;;3.83;2.22;;;;;;;5.02;100.00;99260.88;6245733;23;20080;-90
2023/04/13 00:36:52;;;;;;;5.80;2.00;;;;;;;5.01;100.00;99257.38;6246181;23;20011;-89
2023/04/13 00:39:23;;;;;;;4.72;2.08;;;;;;;5.02;100.00;99259.13;6246779;23;20011;-91
2023/04/13 00:41:49;;;;;;;6.05;2.10;;;;;;;4.99;100.00;99262.75;6246379;23;20079;-89
2023/04/13 00:44:18;;;;;;;4.03;2.13;;;;;;;4.97;100.00;99267.28;6246160;23;20008;-91
2023/04/13 00:46:46;;;;;;;4.38;2.10;;;;;;;4.98;100.00;99262.84;6246329;23;20000;-89
2023/04/13 00:49:13;;;;;;;3.78;1.80;;;;;;;4.98;100.00;99263.69;6249900;22;20062;-90
2023/04/13 00:51:39;;;;;;;4.40;1.88;;;;;;;4.90;100.00;99260.59;6217950;23;20016;-89
2023/04/13 00:54:05;;;;;;;4.03;2.30;;;;;;;4.90;100.00;99251.84;6244936;23;20043;-88
2023/04/13 00:56:32;;;;;;;3.30;1.90;;;;;;;4.94;100.00;99259.53;6243041;23;20011;-88
2023/04/13 00:58:58;;;;;;;4.95;2.05;;;;;;;4.90;100.00;99250.06;6244018;23;20074;-90
2023/04/13 01:04:48;;;;;;;4.22;1.80;;;;;;;4.94;100.00;99256.88;6243297;23;20497;-92
2023/04/13 01:07:40;;;;;;;3.65;2.20;;;;;;;4.98;100.00;99263.69;6239805;23;20027;-91
2023/04/13 01:10:29;;;;;;;4.32;2.35;;;;;;;4.94;100.00;99253.41;6245968;23;20004;-91
2023/04/13 01:13:13;;;;;;;5.00;2.30;;;;;;;4.95;100.00;99261.22;6248487;23;20011;-92
2023/04/13 01:15:41;;;;;;;;;;;;;;;4.94;100.00;99267.44;6245712;23;20008;-89
2023/04/13 01:18:10;;;;;;;5.20;2.60;;;;;;;4.91;100.00;99249.13;6248603;23;19919;-90
2023/04/13 01:20:39;;;;;;;7.55;2.30;;;;;;;5.02;100.00;99268.78;6244130;23;20019;-90
2023/04/13 01:23:08;;;;;;;5.00;2.33;;;;;;;5.07;100.00;99266.78;6245607;23;20007;-89
2023/04/13 01:25:49;;;;;;;6.78;2.60;;;;;;;5.07;100.00;99266.78;6216375;23;20004;-89
2023/04/13 01:28:15;;;;;;;4.80;2.30;;;;;;;5.07;100.00;99269.41;6244039;23;20004;-89
2023/04/13 01:30:43;;;;;;;6.72;2.20;;;;;;;5.02;100.00;99268.78;6244342;23;20004;-89
2023/04/13 01:33:09;;;;;;;5.15;2.00;;;;;;;5.08;100.00;99271.13;6248244;23;20011;-90
2023/04/13 01:35:37;;;;;;;4.55;2.00;;;;;;;5.09;100.00;99273.66;6241520;23;20020;-90
2023/04/13 01:38:03;;;;;;;5.68;2.15;;;;;;;5.06;100.00;99254.50;6243385;23;20098;-89
2023/04/13 01:40:30;;;;;;;3.97;2.00;;;;;;;5.03;100.00;99263.44;6240526;23;20031;-89
2023/04/13 01:42:56;;;;;;;5.55;2.70;;;;;;;5.07;100.00;99274.69;6241685;23;20122;-89
2023/04/13 01:45:31;;;;;;;6.15;2.53;;;;;;;5.03;100.00;99270.50;6240715;23;20062;-89
2023/04/13 01:48:06;;;;;;;5.50;2.67;;;;;;;4.99;100.00;99283.84;6239355;22;20150;-90
2023/04/13 01:50:44;;;;;;;7.25;2.53;;;;;;;4.96;100.00;99278.72;6239850;23;20070;-87
2023/04/13 01:53:18;;;;;;;5.55;2.55;;;;;;;4.99;100.00;99272.47;6240146;23;20004;-89
2023/04/13 01:55:44;;;;;;;7.18;2.78;;;;;;;4.86;100.00;99248.53;6211944;23;20004;-89
2023/04/13 01:58:13;;;;;;;8.60;3.17;;;;;;;4.90;100.00;99265.88;6242593;23;20418;-87
2023/04/13 02:00:39;;;;;;;5.13;2.80;;;;;;;4.90;100.00;99281.69;6253053;23;20008;-88
2023/04/13 02:03:08;;;;;;;6.13;2.92;;;;;;;4.91;100.00;99295.72;6257638;23;20004;-90
2023/04/13 02:05:39;;;;;;;6.85;2.88;;;;;;;4.88;100.00;99288.81;6257534;23;20011;-87
2023/04/13 02:08:06;;;;;;;7.93;2.90;;;;;;;4.83;100.00;99285.59;6237895;23;20000;-89
2023/04/13 02:10:33;;;;;;;7.20;2.92;;;;;;;4.86;100.00;99303.03;6245363;23;20000;-89
2023/04/13 02:12:59;;;;;;;5.95;2.55;;;;;;;4.81;100.00;99299.75;6238970;23;20004;-88
2023/04/13 02:15:27;;;;;;;7.32;2.63;;;;;;;4.79;100.00;99294.59;6238434;23;20004;-88
2023/04/13 02:17:53;;;;;;;9.60;3.00;;;;;;;4.85;100.00;99303.94;6238799;23;20114;-88
2023/04/13 02:20:18;;;;;;;9.48;3.20;;;;;;;4.71;100.00;99287.06;6239402;22;20075;-89
2023/04/13 02:22:44;;;;;;;7.28;2.95;;;;;;;4.81;100.00;99319.09;6238487;23;20445;-88
2023/04/13 02:25:10;;;;;;;7.30;2.42;;;;;;;4.84;100.00;99325.97;6237361;23;20004;-89
2023/04/13 02:27:37;;;;;;;5.63;2.67;;;;;;;4.75;100.00;99322.88;6237896;23;20008;-89
2023/04/13 02:30:04;;;;;;;5.82;2.88;;;;;;;4.78;100.00;99331.56;6239684;23;20012;-88
2023/04/13 02:32:30;;;;;;;5.95;2.60;;;;;;;4.81;100.00;99340.19;6246581;22;19995;-89
2023/04/13 02:34:55;;;;;;;10.40;3.08;;;;;;;4.77;100.00;99336.00;6266792;22;20024;-90
2023/04/13 02:37:21;;;;;;;7.78;2.78;;;;;;;4.83;100.00;99354.13;6267418;22;19999;-90
2023/04/13 02:39:46;;;;;;;5.07;2.50;;;;;;;4.85;100.00;99362.81;6241074;22;20075;-89
2023/04/13 02:42:11;;;;;;;6.03;2.53;;;;;;;4.69;100.00;99348.72;6268360;22;20023;-89
2023/04/13 02:44:37;;;;;;;5.13;2.22;;;;;;;4.74;100.00;99365.13;6267047;22;20008;-90
2023/04/13 02:47:03;;;;;;;7.40;2.60;;;;;;;4.58;100.00;99343.97;6265929;22;20012;-89
2023/04/13 02:49:28;;;;;;;6.93;2.85;;;;;;;4.71;100.00;99373.19;6266017;22;20000;-89
2023/04/13 02:51:54;;;;;;;7.40;2.67;;;;;;;4.67;100.00;99374.28;6262927;22;20047;-89
2023/04/13 02:54:19;;;;;;;6.75;2.70;;;;;;;4.65;100.00;99374.38;6218439;23;20000;-90
2023/04/13 02:56:44;;;;;;;7.18;2.70;;;;;;;4.62;100.00;99381.56;6214901;23;20008;-93
2023/04/13 02:59:10;;;;;;;9.10;2.95;;;;;;;4.59;100.00;99382.56;6214826;23;20027;-91
2023/04/13 03:01:35;;;;;;;7.80;3.08;;;;;;;4.55;100.00;99388.06;6239644;23;20364;-91
2023/04/13 03:04:01;;;;;;;7.90;2.90;;;;;;;4.52;100.00;99390.88;6241354;23;20010;-91
2023/04/13 03:06:26;;;;;;;6.05;2.88;;;;;;;4.46;100.00;99389.38;6240387;23;20062;-90
2023/04/13 03:08:52;;;;;;;7.15;2.60;;;;;;;4.47;100.00;99396.34;6241841;23;20000;-90
2023/04/13 03:11:19;;;;;;;5.22;2.30;;;;;;;4.48;100.00;99388.38;6243520;23;20299;-90
2023/04/13 03:13:45;;;;;;;4.63;2.25;;;;;;;4.42;100.00;99388.66;6242292;23;20322;-90
2023/04/13 03:16:10;;;;;;;4.47;2.40;;;;;;;4.32;100.00;99390.03;6240688;23;20053;-91
2023/04/13 03:18:37;;;;;;;4.43;2.40;;;;;;;4.37;100.00;99395.94;6240846;23;20012;-89
2023/04/13 03:21:04;;;;;;;6.22;2.40;;;;;;;4.38;100.00;99404.69;6213816;23;20438;-90
2023/04/13 03:23:30;;;;;;;6.60;2.35;;;;;;;4.42;100.00;99411.53;6239914;23;20476;-89
2023/04/13 03:25:55;;;;;;;5.20;2.88;;;;;;;4.53;100.00;99421.56;6240431;23;20000;-89
2023/04/13 03:28:20;;;;;;;7.75;2.60;;;;;;;4.61;100.00;99428.16;6240430;23;20022;-90
2023/04/13 03:30:46;;;;;;;4.78;2.90;;;;;;;4.64;100.00;99437.66;6240433;23;20004;-88
2023/04/13 03:33:11;;;;;;;6.40;2.75;;;;;;;4.63;100.00;99435.97;6213079;23;20004;-92
2023/04/13 03:35:36;;;;;;;8.35;3.28;;;;;;;4.67;100.00;99448.91;6239216;23;20776;-89
2023/04/13 03:38:02;;;;;;;7.63;3.70;;;;;;;4.61;100.00;99445.75;6243253;23;20350;-90
2023/04/13 03:40:27;;;;;;;8.63;3.20;;;;;;;4.62;100.00;99458.00;6246138;23;20004;-90
2023/04/13 03:42:52;;;;;;;6.47;3.40;;;;;;;4.61;100.00;99458.91;6247058;23;20093;-86
2023/04/13 03:45:18;;;;;;;7.38;3.92;;;;;;;4.59;100.00;99460.75;6241748;23;20334;-86
2023/04/13 03:47:43;;;;;;;7.00;4.05;;;;;;;4.58;100.00;99465.19;6242749;22;20019;-88
2023/04/13 03:50:09;;;;;;;8.30;5.10;;;;;;;4.48;100.00;99472.69;6243298;23;20031;-88
2023/04/13 03:52:34;;;;;;;9.70;5.60;;;;;;;4.53;100.00;99476.88;6237978;23;20490;-89
2023/04/13 03:55:00;;;;;;;9.02;5.75;;;;;;;4.46;100.00;99477.16;6236882;23;20030;-87
2023/04/13 03:57:26;;;;;;;8.13;5.43;;;;;;;4.34;100.00;99472.47;6237118;23;20465;-90
2023/04/13 03:59:51;;;;;;;11.60;5.72;;;;;;;4.37;100.00;99501.31;6237525;23;20004;-88
2023/04/13 04:02:16;;;;;;;11.20;5.95;;;;;;;4.34;100.00;99482.16;6237358;23;20004;-88
2023/04/13 04:04:42;;;;;;;11.35;6.25;;;;;;;4.30;100.00;99497.25;6237433;23;20445;-89
2023/04/13 04:07:07;;;;;;;9.32;6.38;;;;;;;4.24;100.00;99498.41;6237159;23;20004;-88
2023/04/13 04:09:33;;;;;;;11.43;6.90;;;;;;;4.22;100.00;99499.38;6238174;23;20015;-88
2023/04/13 04:11:59;;;;;;;10.57;6.57;;;;;;;4.15;100.00;99493.56;6237508;23;20003;-86
2023/04/13 04:14:24;;;;;;;16.02;6.97;;;;;;;4.22;100.00;99515.19;6237512;23;20000;-88
2023/04/13 04:16:49;;;;;;;12.68;7.43;;;;;;;4.22;100.00;99517.81;6236706;23;20007;-89
2023/04/13 04:19:15;;;;;;;11.00;6.90;;;;;;;4.20;100.00;99519.69;6237906;23;20011;-89
2023/04/13 04:21:43;;;;;;;13.60;7.72;;;;;;;4.16;100.00;99529.50;6236816;23;20000;-87
2023/04/13 04:24:11;;;;;;;13.13;7.18;;;;;;;4.17;100.00;99532.97;6237126;23;20079;-87
2023/04/13 04:26:36;;;;;;;12.82;8.02;;;;;;;4.17;100.00;99531.19;6239411;23;20011;-87
2023/04/13 04:29:02;;;;;;;12.15;7.28;;;;;;;4.17;100.00;99535.63;6254877;23;20011;-87
2023/04/13 04:31:33;;;;;;;16.63;8.15;;;;;;;4.12;100.00;99535.81;6255555;23;20495;-88
2023/04/13 04:33:59;;;;;;;13.73;8.00;;;;;;;4.09;100.00;99532.47;6255392;23;20013;-88
2023/04/13 04:36:25;;;;;;;12.23;8.25;;;;;;;4.06;100.00;99537.91;6242406;23;20422;-89
2023/04/13 04:38:56;;;;;;;12.35;8.52;;;;;;;4.00;100.00;99531.97;6239045;23;20012;-89
2023/04/13 04:41:22;;;;;;;13.73;8.60;;;;;;;3.98;100.00;99544.34;6236150;23;20004;-88
2023/04/13 04:43:48;;;;;;;13.73;8.77;;;;;;;4.02;100.00;99560.88;6238843;23;20008;-88
2023/04/13 04:46:14;;;;;;;11.40;7.88;;;;;;;3.99;100.00;99566.25;6239173;23;20011;-87
2023/04/13 04:48:40;;;;;;;10.90;7.07;;;;;;;3.96;100.00;99561.97;6240091;22;20020;-90
2023/04/13 04:51:07;;;;;;;10.38;7.43;;;;;;;3.94;100.00;99565.63;6237389;23;20100;-90
2023/04/13 04:53:32;;;;;;;11.23;7.80;;;;;;;3.91;100.00;99565.75;6235662;23;20015;-88
2023/04/13 04:55:58;;;;;;;14.02;7.88;;;;;;;3.89;100.00;99560.56;6231005;23;20011;-88
2023/04/13 04:58:23;;;;;;;12.60;7.82;;;;;;;3.90;100.00;99567.53;6248296;22;20028;-88
2023/04/13 05:00:51;;;;;;;12.95;9.00;;;;;;;3.88;100.00;99577.25;6262601;22;20053;-88
2023/04/13 05:03:16;;;;;;;11.90;9.93;;;;;;;3.93;100.00;99577.94;6261522;22;20008;-90
2023/04/13 05:05:42;;;;;;;13.98;10.40;;;;;;;3.96;100.00;99583.03;6260120;22;20068;-89
2023/04/13 05:08:08;;;;;;;14.15;10.20;;;;;;;3.89;100.00;99567.59;6260105;22;20295;-89
2023/04/13 05:10:33;;;;;;;16.38;11.13;;;;;;;3.91;100.00;99584.16;6232982;23;20173;-89
2023/04/13 05:12:58;;;;;;;15.50;12.13;;;;;;;3.97;100.00;99579.50;6250603;22;20073;-88
2023/04/13 05:15:24;;;;;;;14.80;12.13;;;;;;;3.94;100.00;99568.25;6239809;23;20019;-92
2023/04/13 05:17:49;;;;;;;16.33;11.18;;;;;;;4.03;100.00;99595.94;6240126;23;20008;-89
2023/04/13 05:20:16;;;;;;;13.30;9.55;;;;;;;4.02;100.00;99592.47;6244643;23;20075;-88
2023/04/13 05:22:41;;;;;;;11.40;8.30;;;;;;;4.08;100.00;99594.81;6243387;23;20008;-90
2023/04/13 05:25:08;;;;;;;15.07;9.18;;;;;;;4.07;100.00;99600.16;6240869;23;20011;-88
2023/04/13 05:27:33;;;;;;;11.63;8.02;;;;;;;4.09;100.00;99593.03;6239407;23;20000;-89
2023/04/13 05:29:59;;;;;;;10.80;7.50;;;;;;;4.06;100.00;99599.31;6242516;23;20479;-89
2023/04/13 05:32:24;;;;;;;12.27;9.23;;;;;;;4.09;100.00;99606.19;6242321;23;20381;-90
2023/04/13 05:34:50;;;;;;;8.35;6.70;;;;;;;4.02;100.00;99600.38;6241055;23;20454;-91
2023/04/13 05:37:15;;;;;;;9.50;6.55;;;;;;;4.13;100.00;99618.31;6243586;23;20050;-90
2023/04/13 05:39:41;;;;;;;10.75;6.38;;;;;;;4.17;100.00;99620.72;6242712;23;20031;-91
2023/04/13 05:42:06;;;;;;;10.07;5.38;;;;;;;4.15;100.00;99619.97;6245709;23;20011;-88
2023/04/13 05:44:31;;;;;;;9.70;5.07;;;;;;;4.18;100.00;99622.47;6215591;23;20016;-87
2023/04/13 05:46:57;;;;;;;7.68;5.40;;;;;;;4.25;100.00;99623.88;6242722;23;20016;-89
2023/04/13 05:49:22;;;;;;;7.45;4.88;;;;;;;4.24;100.00;99623.97;6242637;22;20023;-88
2023/04/13 05:51:48;;;;;;;7.95;5.00;;;;;;;4.25;100.00;99626.53;6245677;23;20007;-91
2023/04/13 05:54:13;;;;;;;11.23;4.65;;;;;;;4.35;100.00;99642.78;6243358;23;20014;-87
2023/04/13 05:56:39;;;;;;;7.85;4.45;;;;;;;4.44;100.00;99650.28;6238724;23;20008;-87
2023/04/13 05:59:05;;;;;;;6.82;4.18;;;;;;;4.52;100.00;99660.47;6238844;23;20039;-88
2023/04/13 06:01:30;;;;;;;11.73;4.28;;;;;;;4.55;100.00;99664.75;6239352;23;20008;-87
2023/04/13 06:03:57;;;;;;;7.80;4.28;;;;;;;4.65;100.00;99660.78;6239618;23;20016;-87
2023/04/13 06:06:22;;;;;;;10.43;3.90;;;;;;;4.70;100.00;99659.63;6236805;23;20074;-87
2023/04/13 06:08:48;;;;;;;6.38;3.92;;;;;;;4.73;100.00;99669.19;6241275;23;20681;-87
2023/04/13 06:11:14;;;;;;;10.95;4.03;;;;;;;4.78;100.00;99668.97;6238203;23;20000;-87
2023/04/13 06:13:40;;;;;;;7.60;4.18;;;;;;;4.82;100.00;99678.47;6239647;23;20004;-90
2023/04/13 06:16:07;;;;;;;5.90;3.40;;;;;;;4.89;100.00;99690.41;6240022;23;20000;-87
2023/04/13 06:18:32;;;;;;;7.32;3.55;;;;;;;4.94;100.00;99701.63;6239515;23;20015;-89
2023/04/13 06:20:58;;;;;;;7.38;3.60;;;;;;;4.93;100.00;99690.22;6241422;23;20020;-90
2023/04/13 06:23:24;;;;;;;5.78;3.63;;;;;;;4.97;100.00;99689.16;6240328;23;20008;-88
2023/04/13 06:25:49;;;;;;;6.85;3.33;;;;;;;4.96;100.00;99694.50;6239410;23;20004;-89
2023/04/13 06:28:15;;;;;;;8.30;2.97;;;;;;;4.94;100.00;99699.00;6239629;23;20083;-89
2023/04/13 06:30:40;;;;;;;5.47;3.40;;;;;;;4.98;100.00;99704.06;6239765;23;20004;-88
2023/04/13 06:33:06;;;;;;;7.63;3.42;;;;;;;5.02;100.00;99715.31;6241243;23;20012;-88
2023/04/13 06:35:32;;;;;;;7.55;3.70;;;;;;;5.11;100.00;99714.03;6238299;23;20008;-88
2023/04/13 06:38:00;;;;;;;7.10;3.58;;;;;;;5.23;100.00;99716.97;6241699;23;20012;-87
2023/04/13 06:40:26;;;;;;;8.00;3.45;;;;;;;5.30;100.00;99706.09;6239442;23;20015;-86
2023/04/13 06:42:52;;;;;;;4.15;3.20;;;;;;;5.47;100.00;99700.88;6238012;23;20015;-86
2023/04/13 06:45:18;;;;;;;5.25;3.42;;;;;;;5.61;100.00;99705.50;6210663;23;20007;-87
2023/04/13 06:47:43;;;;;;;6.38;3.38;;;;;;;5.75;100.00;99703.88;6238217;22;20376;-88
2023/04/13 06:50:14;;;;;;;5.68;3.30;;;;;;;5.86;100.00;99719.22;6246527;23;20008;-87
2023/04/13 06:52:47;;;;;;;8.63;3.85;;;;;;;5.86;100.00;99729.78;6257858;23;20127;-86
2023/04/13 06:55:13;;;;;;;6.50;3.73;;;;;;;5.87;100.00;99726.19;6262202;23;20008;-87
2023/04/13 06:57:42;;;;;;;8.90;4.05;;;;;;;5.92;100.00;99732.13;6249985;23;20461;-88
2023/04/13 07:00:09;;;;;;;7.38;4.15;;;;;;;5.96;100.00;99735.47;6239743;23;20004;-86
2023/04/13 07:02:35;;;;;;;9.10;4.53;;;;;;;6.01;100.00;99740.53;6241189;23;20495;-87
2023/04/13 07:05:00;;;;;;;9.05;4.43;;;;;;;6.04;100.00;99750.97;6215608;23;20023;-86
2023/04/13 07:07:25;;;;;;;8.20;3.90;;;;;;;5.95;100.00;99742.56;6241444;23;20092;-86
2023/04/13 07:09:51;;;;;;;9.25;5.10;;;;;;;6.02;100.00;99755.44;6239505;23;20421;-88
2023/04/13 07:12:16;;;;;;;9.88;5.05;;;;;;;6.09;100.00;99760.34;6238353;23;20032;-85
2023/04/13 07:14:42;;;;;;;9.50;4.72;;;;;;;6.15;100.00;99768.00;6236584;23;20008;-88
2023/04/13 07:17:07;;;;;;;8.98;5.22;;;;;;;6.14;100.00;99775.97;6239515;23;20421;-86
2023/04/13 07:19:34;;;;;;;10.75;5.43;;;;;;;6.09;100.00;99764.78;6254215;22;20010;-87
2023/04/13 07:22:00;;;;;;;7.78;5.05;;;;;;;6.19;100.00;99789.84;6263488;22;20058;-86
2023/04/13 07:24:27;;;;;;;8.32;4.70;;;;;;;6.23;100.00;99780.81;6262178;23;20004;-87
2023/04/13 07:26:53;;;;;;;9.57;4.80;;;;;;;6.31;100.00;99783.94;6259733;23;20034;-88
2023/04/13 07:29:19;;;;;;;8.25;5.07;;;;;;;6.35;100.00;99779.34;6258079;23;20008;-88
2023/04/13 07:31:44;;;;;;;10.80;4.65;;;;;;;6.41;100.00;99787.81;6256415;23;20330;-86
2023/04/13 07:34:11;;;;;;;8.63;5.28;;;;;;;6.35;100.00;99790.75;6250727;23;20004;-87
2023/04/13 07:36:36;;;;;;;8.73;4.63;;;;;;;6.38;100.00;99793.25;6248982;22;20015;-89
2023/04/13 07:39:02;;;;;;;8.88;4.57;;;;;;;6.40;100.00;99801.97;6247998;23;20008;-88
2023/04/13 07:41:28;;;;;;;9.65;4.47;;;;;;;6.34;100.00;99785.56;6241055;23;20023;-88
2023/04/13 07:43:53;;;;;;;10.00;5.15;;;;;;;6.36;100.00;99807.50;6241657;23;20126;-87
2023/04/13 07:46:25;;;;;;;11.23;5.18;;;;;;;6.37;100.00;99807.41;6241585;23;20008;-86
2023/04/13 07:48:50;;;;;;;9.40;4.38;;;;;;;6.36;100.00;99800.41;6241487;22;20011;-87
2023/04/13 07:51:19;;;;;;;8.40;4.47;;;;;;;6.42;100.00;99815.94;6238227;23;20062;-87
2023/04/13 07:53:45;;;;;;;8.25;4.40;;;;;;;6.39;100.00;99805.53;6211509;23;20008;-87
2023/04/13 07:56:11;;;;;;;9.23;4.75;;;;;;;6.60;100.00;99821.25;6238289;23;20004;-86
2023/04/13 07:58:36;;;;;;;10.45;4.60;;;;;;;6.90;100.00;99830.28;6235382;23;20473;-85
2023/04/13 08:01:02;;;;;;;9.18;4.90;;;;;;;7.16;100.00;99823.59;6235891;23;20015;-86
2023/04/13 08:03:31;;;;;;;9.63;4.30;;;;;;;7.39;100.00;99824.16;6234117;23;20012;-84
2023/04/13 08:05:56;;;;;;;9.32;4.10;;;;;;;7.82;100.00;99827.13;6209579;23;20016;-87
2023/04/13 08:08:21;;;;;;;10.77;4.00;;;;;;;8.23;100.00;99830.06;6233724;23;20058;-86
2023/04/13 08:10:47;;;;;;;6.43;3.65;;;;;;;8.42;100.00;99830.75;6234482;23;20054;-86
2023/04/13 08:13:13;;;;;;;10.07;4.10;;;;;;;8.17;100.00;99828.63;6233911;23;20030;-87
2023/04/13 08:15:38;;;;;;;8.93;3.60;;;;;;;7.98;100.00;99850.03;6232720;23;20042;-87
2023/04/13 08:18:04;;;;;;;11.10;3.97;;;;;;;7.93;100.00;99838.81;6208685;23;20004;-88
2023/04/13 08:20:29;;;;;;;11.00;4.18;;;;;;;8.24;100.00;99866.25;6232857;23;20000;-87
2023/04/13 08:22:54;;;;;;;12.20;4.50;;;;;;;8.38;98.27;99853.09;6206034;23;20387;-87
2023/04/13 08:25:20;;;;;;;8.10;4.93;;;;;;;8.35;99.52;99850.56;6234943;23;20004;-87
2023/04/13 08:27:45;;;;;;;11.63;4.60;;;;;;;8.24;100.00;99866.25;6233431;23;20039;-87
2023/04/13 08:30:11;;;;;;;15.73;5.53;;;;;;;8.10;100.00;99860.84;6234629;23;20000;-87
2023/04/13 08:32:36;;;;;;;11.23;5.53;;;;;;;7.95;100.00;99860.78;6232386;23;20008;-86
2023/04/13 08:35:06;;;;;;;12.20;4.75;;;;;;;8.15;100.00;99878.22;6233848;23;20000;-87
2023/04/13 08:37:32;;;;;;;11.77;5.55;;;;;;;8.15;97.27;99887.94;6235284;23;20008;-87
2023/04/13 08:39:59;;;;;;;13.15;4.80;;;;;;;8.18;97.81;99883.34;6236142;23;20004;-88
2023/04/13 08:42:26;;;;;;;16.08;5.25;;;;;;;8.09;96.04;99893.59;6233325;23;20034;-87
2023/04/13 08:44:57;;;;;;;12.40;5.28;;;;;;;7.96;96.03;99907.53;6234526;23;20085;-88
2023/04/13 08:47:27;;;;;;;11.55;5.28;;;;;;;7.89;97.46;99903.50;6232890;23;20015;-85
2023/04/13 08:49:59;;;;;;;13.25;4.88;;;;;;;7.85;97.05;99912.56;6205481;23;20089;-86
2023/04/13 08:52:26;;;;;;;16.20;5.60;;;;;;;7.81;98.84;99916.31;6234381;23;20000;-87
2023/04/13 08:54:53;;;;;;;14.80;5.70;;;;;;;7.73;97.94;99908.81;6236433;23;20024;-85
2023/04/13 08:57:20;;;;;;;15.30;5.35;;;;;;;7.71;97.28;99929.22;6236725;23;20386;-87
2023/04/13 08:59:48;;;;;;;11.82;5.28;;;;;;;7.73;99.02;99930.00;6236849;23;20000;-85
2023/04/13 09:02:14;;;;;;;14.45;5.03;;;;;;;7.86;99.36;99935.50;6236292;23;20008;-85
2023/04/13 09:04:42;;;;;;;13.48;5.03;;;;;;;8.12;97.96;99947.31;6235759;23;20008;-86
2023/04/13 09:07:11;;;;;;;13.07;5.45;;;;;;;8.26;96.28;99946.53;6236637;23;20008;-87
2023/04/13 09:09:38;;;;;;;13.73;5.07;;;;;;;8.27;96.13;99950.03;6249209;23;20012;-87
2023/04/13 09:12:04;;;;;;;12.00;4.80;;;;;;;8.35;95.94;99950.47;6262925;23;20042;-85
2023/04/13 09:14:30;;;;;;;14.88;5.25;;;;;;;8.60;93.20;99948.19;6237104;23;20016;-87
2023/04/13 09:16:56;;;;;;;14.32;5.60;;;;;;;9.25;94.18;99955.06;6251730;23;20036;-86
2023/04/13 09:19:31;;;;;;;13.65;5.28;;;;;;;9.53;89.54;99964.88;6237935;23;20015;-85
2023/04/13 09:21:57;;;;;;;13.65;5.20;;;;;;;10.53;88.54;99954.19;6237260;23;20015;-86
2023/04/13 09:24:22;;;;;;;13.32;4.90;;;;;;;11.56;82.30;99950.84;6236872;23;20004;-86
2023/04/13 09:26:48;;;;;;;15.77;4.78;;;;;;;11.97;74.88;99969.31;6238437;23;20539;-86
2023/04/13 09:29:16;;;;;;;13.80;4.60;;;;;;;11.38;76.13;99977.81;6239261;23;20043;-86
2023/04/13 09:31:42;;;;;;;11.70;4.32;;;;;;;10.89;76.07;99969.56;6239583;23;20430;-84
2023/04/13 09:34:08;;;;;;;9.63;4.13;;;;;;;10.73;80.38;99993.69;6211861;23;20011;-85
2023/04/13 09:36:35;;;;;;;16.45;4.60;;;;;;;10.68;79.35;99980.66;6240404;23;20514;-86
2023/04/13 09:39:01;;;;;;;11.05;4.68;;;;;;;10.38;82.61;99998.63;6241294;23;20096;-85
2023/04/13 09:41:32;;;;;;;11.13;4.20;;;;;;;9.93;78.82;100006.66;6253863;23;20008;-87
2023/04/13 09:44:02;;;;;;;10.38;4.32;;;;;;;9.53;82.54;100007.38;6264332;23;20000;-85
2023/04/13 09:46:28;;;;;;;11.77;4.38;;;;;;;9.33;85.43;100012.09;6264933;23;20058;-87
2023/04/13 09:49:01;;;;;;;11.85;4.53;;;;;;;9.57;84.15;100031.03;6254285;22;20513;-85
2023/04/13 09:51:47;;;;;;;13.30;4.40;;;;;;;9.79;83.34;100030.59;6241399;23;19996;-85
2023/04/13 09:54:19;;;;;;;11.68;3.95;;;;;;;9.61;80.96;100026.38;6236936;23;20008;-87
2023/04/13 09:56:45;;;;;;;9.57;4.10;;;;;;;9.48;81.75;100040.38;6243385;23;20004;-86
2023/04/13 09:59:12;;;;;;;10.55;4.88;;;;;;;9.33;83.27;100043.94;6241856;23;20035;-86
2023/04/13 10:01:42;;;;;;;12.23;4.57;;;;;;;9.04;82.06;100044.78;6239453;23;20123;-86
2023/04/13 10:04:08;;;;;;;14.27;5.22;;;;;;;8.86;84.19;100059.94;6212769;23;20008;-87
2023/04/13 10:06:38;;;;;;;16.52;6.20;;;;;;;8.62;84.47;100035.66;6237687;23;20022;-86
2023/04/13 10:09:04;;;;;;;13.55;5.72;;;;;;;8.61;84.99;100049.81;6236908;23;20004;-86
2023/04/13 10:11:32;;;;;;;13.30;5.50;;;;;;;8.78;85.86;100065.69;6237348;23;20046;-86
2023/04/13 10:14:01;;;;;;;10.48;4.97;;;;;;;9.07;83.53;100055.19;6236705;23;20121;-86
2023/04/13 10:16:41;;;;;;;13.43;5.03;;;;;;;9.28;84.74;100055.75;6236116;23;20552;-86
2023/04/13 10:19:10;;;;;;;11.45;4.63;;;;;;;9.46;81.22;100058.22;6236243;23;20094;-85
2023/04/13 10:21:38;;;;;;;12.07;5.35;;;;;;;9.70;80.94;100066.53;6235867;23;20083;-85
2023/04/13 10:24:05;;;;;;;10.80;4.80;;;;;;;9.99;78.14;100063.94;6237035;23;20015;-86
2023/04/13 10:26:31;;;;;;;9.50;4.35;;;;;;;10.25;77.95;100073.00;6237361;23;20004;-87
2023/04/13 10:28:58;;;;;;;12.43;4.75;;;;;;;10.39;77.20;100074.81;6207596;23;20004;-86
2023/04/13 10:31:45;;;;;;;8.75;4.43;;;;;;;10.56;77.73;100085.25;6209660;23;20042;-87
2023/04/13 10:34:25;;;;;;;13.60;4.60;;;;;;;10.91;75.31;100088.34;6237211;23;20023;-87
2023/04/13 10:36:54;;;;;;;11.43;4.63;;;;;;;11.35;72.96;100086.38;6208668;23;20015;-85
2023/04/13 10:39:31;;;;;;;11.32;4.35;;;;;;;11.65;73.01;100094.16;6210726;23;20004;-85
2023/04/13 10:42:09;;;;;;;8.18;3.67;;;;;;;12.39;69.54;100095.31;6206025;23;20056;-86
2023/04/13 10:44:41;;;;;;;9.52;3.80;;;;;;;12.55;66.95;100093.28;6235893;23;20497;-86
2023/04/13 10:47:07;;;;;;;10.32;4.28;;;;;;;12.17;65.58;100091.47;6236824;23;20079;-88
2023/04/13 10:49:32;;;;;;;8.25;4.40;;;;;;;11.80;66.78;100089.59;6230527;23;20039;-87
2023/04/13 10:51:57;;;;;;;10.93;4.85;;;;;;;11.36;69.42;100107.59;6234761;23;20000;-86
2023/04/13 10:54:28;;;;;;;13.13;4.47;;;;;;;10.88;71.64;100106.31;6235784;23;20035;-85
2023/04/13 10:56:57;;;;;;;10.88;4.22;;;;;;;10.46;72.95;100110.72;6235475;23;20011;-87
2023/04/13 10:59:34;;;;;;;11.70;4.07;;;;;;;10.33;74.43;100110.63;6233899;23;20007;-86
2023/04/13 11:02:00;;;;;;;11.85;4.70;;;;;;;10.04;74.40;100103.53;6230473;23;20000;-85
2023/04/13 11:04:25;;;;;;;14.93;4.60;;;;;;;9.91;74.20;100119.38;6208784;23;20036;-85
2023/04/13 11:06:51;;;;;;;9.55;3.90;;;;;;;9.85;74.06;100123.22;6207550;23;20146;-87
2023/04/13 11:09:21;;;;;;;7.22;4.10;;;;;;;9.71;74.66;100126.72;6236183;23;20008;-84
2023/04/13 11:11:50;;;;;;;8.15;4.43;;;;;;;9.66;72.80;100133.25;6234191;23;20051;-86
2023/04/13 11:14:21;;;;;;;8.93;4.13;;;;;;;9.56;75.43;100137.38;6235784;23;20008;-86
2023/04/13 11:16:48;;;;;;;10.02;4.30;;;;;;;9.54;75.13;100129.50;6236862;23;20015;-88
2023/04/13 11:19:14;;;;;;;10.80;4.93;;;;;;;9.55;73.55;100125.88;6237810;23;20000;-87
2023/04/13 11:21:39;;;;;;;9.10;4.85;;;;;;;9.58;76.32;100128.38;6236005;23;20091;-86
2023/04/13 11:24:04;;;;;;;11.70;5.07;;;;;;;10.27;76.73;100132.25;6236053;23;20031;-87
2023/04/13 11:26:36;;;;;;;10.02;4.60;;;;;;;11.15;71.90;100141.81;6234999;23;20075;-85
2023/04/13 11:29:02;;;;;;;8.43;4.20;;;;;;;12.41;67.36;100133.41;6235868;23;20090;-86
2023/04/13 11:31:38;;;;;;;12.80;4.88;;;;;;;13.41;66.75;100129.81;6208037;23;20074;-87